| |
Missouri Department of Transportation

Social Media Facebook Twitter Flickr Instagram YouTube RSS

Current AWOS Information

 
AWOS Home - General Info for all Airports
Current AWOS for all Airports - Current METAR for all Airports
Glossary - Disclaimer - Other Links


SULLIVAN--SULLIVAN REGIONAL--KUUV
 
Recent AWOS History
 
04/19/15     08:02 PM CDT      01:02 GMT
Air Temperature 66°F (19°C ) 1st Cloud Layer Broken at 7,000 feet
Dew Point 55°F (13°C) 2nd Cloud Layer Broken at 8,000 feet
Barometric Pressure 29.89 in Hg. 3rd Cloud Layer  
Wind Speed 3 mph (3 knots) Density Altitude  
Peak Wind Gusts   Variable Wind Directions  
Wind Direction Quadrant(300°) Variable Visibility  
Visibility 10 statute miles  

Thunderstorm and Precipitation Identification: 
Thunderstorm Remarks:  Lightning Distant West And North-West

Current METAR Record: METAR KUUV 190105Z AUTO 32003KT 10SM BKN070 BKN080 19/13 A2989 RMK AO2 LTG DSNT W AND NW

 

 

 

About Us
How Do I...
Contact Us
Missouri Department of Transportation
Central Office
105 W. Capitol Avenue
Jefferson City, MO 65102
1-888-ASK-MODOT (275-6636)
1-866-831-6277 (Motor Carrier Services)
Drivers License Offices
horz_bar
| | |
Missouri State Government
© 2013 Missouri Department of Transportation. All Rights Reserved.   Privacy Policy.
 
 
 
 
RSS FeedYoutubeBlogFlickrTwitter Facebook